松山國際航空站 - 塔臺

METAR RCSS 130800Z 28009KT 9999 FEW020 SCT030 BKN050 33/28 Q1010 NOSIG RMK 29009KT/R10 A2984=

站台狀態:Offline
最後更新:2020-08-13 16:00:01